Mestre Cruz — CUEP8 — position and weather

sailwx.info

Track history (hours):
 
Tides and Currents Weather Stations Pressure Air Temp Water Temp Dewpoint Dewpoint Depression Visibility Wind Speed Wind Dir Waves Ship Positions

Mestre Cruz

Last reported at 2017-Oct-13 05:31 UTC. Time now 2017-Oct-20 07:22 UTC.
Position N 41°14' W 008°46'.

Length 17 m.

Type: Fishing. MMSI: 263408950.

Date/timePositionNaut miles runAvg speedWind from/ knotsBaromVisibWave heightAir tempDewpointWater temp
2017-Oct-13 05:31N 41°14' W 008°46'0 0.9
2017-Oct-13 05:30N 41°14' W 008°46'3 0.8
2017-Oct-13 01:47N 41°12' W 008°49'1 2.0
2017-Oct-13 01:16N 41°13' W 008°50'1 1.2
2017-Oct-13 00:22N 41°12' W 008°50'2 5.7
2017-Oct-13 00:00N 41°10' W 008°50'0 0.7
2017-Oct-12 23:26N 41°11' W 008°50'9 2.4
2017-Oct-12 19:29N 41°20' W 008°48'  
2017-Oct-09 12:27N 41°12' W 008°54'  
2017-Oct-04 10:42N 41°10' W 008°51'1 4.6
2017-Oct-04 10:25N 41°12' W 008°50'2 0.5
2017-Oct-04 06:09N 41°14' W 008°48'3 0.3
2017-Oct-03 22:17N 41°11' W 008°50'1 2.0
2017-Oct-03 22:00N 41°11' W 008°50'0 0.9
2017-Oct-03 21:30N 41°11' W 008°50'  
Track history (hours):
 
Tides and Currents Weather Stations Pressure Air Temp Water Temp Dewpoint Dewpoint Depression Visibility Wind Speed Wind Dir Waves Ship Positions

Mestre Cruz

Last reported at 2017-Oct-13 05:31 UTC. Time now 2017-Oct-20 07:22 UTC.
Position N 41°14' W 008°46'.

Length 17 m.

Type: Fishing. MMSI: 263408950.

Date/timePositionNaut miles runAvg speedWind from/ knotsBaromVisibWave heightAir tempDewpointWater temp
2017-Oct-13 05:31N 41°14' W 008°46'0 0.9
2017-Oct-13 05:30N 41°14' W 008°46'3 0.8
2017-Oct-13 01:47N 41°12' W 008°49'1 2.0
2017-Oct-13 01:16N 41°13' W 008°50'1 1.2
2017-Oct-13 00:22N 41°12' W 008°50'2 5.7
2017-Oct-13 00:00N 41°10' W 008°50'0 0.7
2017-Oct-12 23:26N 41°11' W 008°50'9 2.4
2017-Oct-12 19:29N 41°20' W 008°48'  
2017-Oct-09 12:27N 41°12' W 008°54'  
2017-Oct-04 10:42N 41°10' W 008°51'1 4.6
2017-Oct-04 10:25N 41°12' W 008°50'2 0.5
2017-Oct-04 06:09N 41°14' W 008°48'3 0.3
2017-Oct-03 22:17N 41°11' W 008°50'1 2.0
2017-Oct-03 22:00N 41°11' W 008°50'0 0.9
2017-Oct-03 21:30N 41°11' W 008°50'  

Dump ship's entire track history